Terminal Aerodrome Forecast
Issued by NWS St Louis, MO

Home | Current Version | Previous Version | Text Only | Print | Product List | Glossary On
Versions: 1 2 3 4 5 6 7 8 9 10 11 12 13 14 15 16 17 18 19 20 21 22 23
000
FTUS43 KLSX 241100
TAFCOU
TAF
KCOU 241120Z 2412/2512 VRB04KT 1/4SM FG OVC012
     FM241400 19007KT 2SM BR BKN015
     FM241700 20009KT P6SM SCT020
     FM250600 25005KT 3SM BR SCT250=

USA.gov is the U.S. government's official web portal to all federal, state and local government web resources and services.